logo tempoitalia

Diretta Meteo Palmdale Production Flight Plant, Stati Uniti (USA)domenica 30 agosto ore 22:53

Mappa
Sereno 26 °C Sereno 24 Ore: T.min 19 T.max 34
Ponente Sud-Ovest Km/h 20.3 Punto di rugiada: 5 °C Umidità: 25% Visibilità: 10 Km
Il sole sorge alle: 06:24 Il sole tramonta alle: 19:21
30 Agosto 2026 22:53 tempo osservato: Sereno Sereno 26 25 1014 vento: Nord SO 20.3
30 Agosto 2026 21:53 tempo osservato: Sereno Sereno 26 39 1014 vento: Nord O/SO 11.1
30 Agosto 2026 20:53 tempo osservato: Sereno Sereno 26 41 1013 vento: Nord O 16.7
30 Agosto 2026 19:53 tempo osservato: Sereno Sereno 28 32 1012 vento: Nord SO 24
30 Agosto 2026 18:53 tempo osservato: Sereno Sereno 29 26 1012 vento: Nord O/SO 24
30 Agosto 2026 17:53 tempo osservato: Sereno Sereno 30 23 1012 vento: Nord O/SO 25.9
30 Agosto 2026 16:53 tempo osservato: Sereno Sereno 33 19 1012 vento: Nord O/SO 33.3
30 Agosto 2026 15:53 tempo osservato: Sereno Sereno 34 20 1012 vento: Nord SO 37
30 Agosto 2026 14:53 tempo osservato: Sereno Sereno 34 20 1013 vento: Nord SO 38.8
30 Agosto 2026 13:53 tempo osservato: Sereno Sereno 33 19 1013 vento: Nord O/SO 27.8
30 Agosto 2026 12:53 tempo osservato: Sereno Sereno 33 19 1014 vento: Nord O 37
30 Agosto 2026 11:53 tempo osservato: Sereno Sereno 32 19 1014 vento: Nord O 24
30 Agosto 2026 10:53 tempo osservato: Sereno Sereno 31 23 1014 vento: Nord SO 16.7
30 Agosto 2026 09:53 tempo osservato: Sereno Sereno 27 34 1015 vento: Nord N 0
30 Agosto 2026 08:53 tempo osservato: Sereno Sereno 25 41 1015 vento: Nord N 5.5
30 Agosto 2026 07:53 tempo osservato: Sereno Sereno 24 43 1015 vento: Nord N 5.5
30 Agosto 2026 06:53 tempo osservato: Sereno Sereno 21 52 1015 vento: Nord N 0
30 Agosto 2026 05:53 tempo osservato: Sereno Sereno 19 59 1014 vento: Nord N 5.5
30 Agosto 2026 04:53 tempo osservato: Sereno Sereno 23 43 1014 vento: Nord N 0
30 Agosto 2026 03:53 tempo osservato: Sereno Sereno 23 43 1014 vento: Nord O/NO 16.7
30 Agosto 2026 02:53 tempo osservato: Sereno Sereno 24 38 1014 vento: Nord O/NO 16.7
30 Agosto 2026 01:53 tempo osservato: Sereno Sereno 24 38 1014 vento: Nord O 13
30 Agosto 2026 00:53 tempo osservato: Sereno Sereno 26 34 1014 vento: Nord O/SO 11.1
29 Agosto 2026 23:53 tempo osservato: Sereno Sereno 24 47 1014 vento: Nord N 5.5